Time;durP1;ratioP1;P1;durP2;ratioP2;P2;SDS_P1;SDS_P2;PMS_P1;PMS_P2;Temp;Humidity;BMP_temperature;BMP_pressure;BME280_temperature;BME280_humidity;BME280_pressure;Samples;Min_cycle;Max_cycle;Signal;HPM_P1;HPM_P2
2023/04/29 00:00:33;;;;;;;6.83;4.00;;;;;;;6.59;100.00;58644.09;5012221;28;20210;-69
2023/04/29 00:03:00;;;;;;;10.47;5.27;;;;;;;6.19;100.00;57942.84;5011553;28;20172;-69
2023/04/29 00:05:25;;;;;;;10.77;5.07;;;;;;;6.20;100.00;56786.31;5020592;28;20183;-67
2023/04/29 00:07:52;;;;;;;9.07;4.63;;;;;;;6.19;100.00;56592.28;5012454;28;20598;-68
2023/04/29 00:10:17;;;;;;;7.47;4.63;;;;;;;6.32;100.00;56474.28;5012457;28;20180;-70
2023/04/29 00:12:42;;;;;;;9.37;5.13;;;;;;;6.42;100.00;56279.13;5012185;28;20211;-72
2023/04/29 00:15:08;;;;;;;10.70;5.07;;;;;;;6.03;100.00;56029.09;5012147;28;20195;-74
2023/04/29 00:17:34;;;;;;;6.70;4.33;;;;;;;6.42;100.00;55463.56;5012313;28;20639;-69
2023/04/29 00:19:59;;;;;;;9.60;4.87;;;;;;;6.06;100.00;55133.16;5012001;28;20176;-69
2023/04/29 00:22:25;;;;;;;8.53;4.63;;;;;;;6.45;100.00;54471.50;5012943;28;20172;-70
2023/04/29 00:24:51;;;;;;;8.10;4.50;;;;;;;6.13;100.00;54371.03;5011011;28;20188;-67
2023/04/29 00:27:17;;;;;;;9.17;4.67;;;;;;;6.32;100.00;53243.91;5012308;28;20187;-70
2023/04/29 00:29:42;;;;;;;10.80;4.50;;;;;;;6.27;100.00;52183.97;5012154;28;20176;-68
2023/04/29 00:32:08;;;;;;;8.30;5.40;;;;;;;5.96;100.00;52897.41;5012321;28;20258;-70
2023/04/29 00:34:33;;;;;;;8.50;5.03;;;;;;;5.72;100.00;51827.22;5012418;28;20203;-69
2023/04/29 00:36:58;;;;;;;9.27;4.83;;;;;;;5.93;100.00;51013.69;5012290;28;20175;-68
2023/04/29 00:39:24;;;;;;;12.50;5.07;;;;;;;5.53;100.00;49208.28;5012282;28;20198;-69
2023/04/29 00:41:51;;;;;;;14.47;5.13;;;;;;;5.91;100.00;44712.16;5014934;28;20183;-67
2023/04/29 00:44:16;;;;;;;7.87;4.63;;;;;;;5.87;100.00;47224.72;5015717;28;20207;-66
2023/04/29 00:46:42;;;;;;;7.97;5.00;;;;;;;5.92;100.00;49110.31;5016003;28;20664;-68
2023/04/29 00:49:08;;;;;;;9.83;4.63;;;;;;;6.20;100.00;50847.03;5016037;28;20652;-67
2023/04/29 00:51:35;;;;;;;7.97;4.17;;;;;;;6.27;100.00;53054.22;5015610;28;20210;-70
2023/04/29 00:54:03;;;;;;;7.50;3.97;;;;;;;6.23;100.00;52387.47;5016102;28;20172;-68
2023/04/29 00:56:32;;;;;;;9.70;5.13;;;;;;;5.78;100.00;51783.00;5015900;28;20183;-68
2023/04/29 00:58:58;;;;;;;8.17;4.90;;;;;;;5.95;100.00;52319.91;5016545;28;20231;-68
2023/04/29 01:01:23;;;;;;;12.67;4.87;;;;;;;6.01;100.00;51494.03;5014669;28;20184;-70
2023/04/29 01:03:50;;;;;;;7.07;4.03;;;;;;;5.94;100.00;53021.31;5015790;28;20180;-68
2023/04/29 01:06:40;;;;;;;6.50;4.47;;;;;;;5.99;100.00;52531.19;5023594;28;20179;-68
2023/04/29 01:09:29;;;;;;;6.90;4.80;;;;;;;5.96;100.00;52014.50;5015383;28;20191;-68
2023/04/29 01:12:10;;;;;;;5.87;4.10;;;;;;;5.85;100.00;50697.69;5015666;28;20207;-71
2023/04/29 01:14:38;;;;;;;7.57;4.57;;;;;;;5.56;100.00;48715.88;5015748;28;20182;-67
2023/04/29 01:17:10;;;;;;;7.30;4.73;;;;;;;5.70;100.00;47643.94;5015514;28;20212;-69
2023/04/29 01:19:55;;;;;;;9.30;4.70;;;;;;;5.84;100.00;47872.78;5015639;28;20176;-68
2023/04/29 01:22:21;;;;;;;8.30;4.80;;;;;;;5.40;100.00;44926.41;5015709;28;20703;-69
2023/04/29 01:24:48;;;;;;;7.80;4.67;;;;;;;5.26;100.00;35646.66;5015787;28;20176;-68
2023/04/29 01:27:27;;;;;;;6.80;4.63;;;;;;;5.21;100.00;30822.28;5015357;28;20183;-67
2023/04/29 01:30:19;;;;;;;6.43;4.80;;;;;;;5.38;100.00;25696.56;5015132;28;20168;-67
2023/04/29 01:33:06;;;;;;;8.00;4.43;;;;;;;5.45;100.00;24097.03;5014522;28;20235;-71
2023/04/29 01:36:04;;;;;;;5.43;4.00;;;;;;;5.46;100.00;22494.47;5015101;28;20229;-68
2023/04/29 01:38:43;;;;;;;8.50;4.60;;;;;;;5.33;100.00;19926.25;5013997;28;20663;-68
2023/04/29 01:41:15;;;;;;;7.40;4.47;;;;;;;5.05;100.00;15755.97;5015130;28;20172;-70
2023/04/29 01:43:41;;;;;;;7.90;4.80;;;;;;;5.32;100.00;12889.41;5015006;28;20203;-68
2023/04/29 01:46:12;;;;;;;8.00;4.63;;;;;;;5.05;100.00;10645.97;5015036;28;20221;-68
2023/04/29 01:48:38;;;;;;;11.13;4.83;;;;;;;4.94;100.00;8091.34;5015246;28;20203;-68
2023/04/29 01:51:05;;;;;;;8.57;4.77;;;;;;;5.28;100.00;5548.63;5015109;28;20235;-67
2023/04/29 01:53:31;;;;;;;11.60;5.70;;;;;;;5.33;100.00;4274.75;5015030;28;20176;-69
2023/04/29 01:55:56;;;;;;;7.87;5.07;;;;;;;5.44;100.00;4595.31;5015179;28;20187;-70
2023/04/29 01:58:22;;;;;;;8.53;5.20;;;;;;;5.05;100.00;3314.25;5014778;28;20273;-67
2023/04/29 02:00:47;;;;;;;8.17;4.97;;;;;;;5.28;100.00;2680.97;5014760;28;20176;-68
2023/04/29 02:03:12;;;;;;;10.33;5.10;;;;;;;4.90;100.00;2356.97;5014437;28;20172;-70
2023/04/29 02:05:38;;;;;;;11.33;5.20;;;;;;;5.10;100.00;1404.97;5016540;28;20203;-66
2023/04/29 02:08:06;;;;;;;8.37;5.37;;;;;;;4.92;100.00;766.28;5021245;28;20180;-69
2023/04/29 02:10:32;;;;;;;8.70;5.27;;;;;;;4.61;100.00;-191.19;5012232;28;20293;-69
2023/04/29 02:12:57;;;;;;;5.90;4.67;;;;;;;5.05;100.00;-1458.59;5013337;28;20274;-69
2023/04/29 02:15:26;;;;;;;9.83;4.83;;;;;;;5.20;100.00;-821.16;5013804;28;20737;-68
2023/04/29 02:17:51;;;;;;;8.97;5.30;;;;;;;5.10;100.00;-504.13;5013260;28;20282;-69
2023/04/29 02:20:17;;;;;;;12.17;5.97;;;;;;;4.83;100.00;-1142.63;5014197;28;20382;-68
2023/04/29 02:22:42;;;;;;;6.80;4.80;;;;;;;5.07;100.00;-1776.41;5013526;28;20195;-68
2023/04/29 02:25:08;;;;;;;5.77;4.00;;;;;;;5.01;100.00;-2412.59;5028346;28;20690;-69
2023/04/29 02:27:34;;;;;;;10.57;5.40;;;;;;;5.12;100.00;-2729.72;5013984;28;20242;-70
2023/04/29 02:29:59;;;;;;;9.90;6.27;;;;;;;4.77;100.00;-2414.31;5013840;28;20179;-68
2023/04/29 02:32:24;;;;;;;6.40;4.20;;;;;;;4.92;100.00;-2413.25;5013713;28;20203;-67
2023/04/29 02:34:50;;;;;;;8.60;4.57;;;;;;;5.22;100.00;-2093.13;5016155;28;20176;-70
2023/04/29 02:37:16;;;;;;;8.87;5.20;;;;;;;5.13;100.00;-821.81;5014669;28;20238;-69
2023/04/29 02:39:41;;;;;;;15.47;5.37;;;;;;;5.16;100.00;-1139.66;5013825;28;20208;-70
2023/04/29 02:42:07;;;;;;;9.10;4.57;;;;;;;5.17;100.00;-1457.59;5012536;28;20643;-67
2023/04/29 02:44:32;;;;;;;10.13;5.03;;;;;;;4.88;100.00;-1142.13;5013978;28;20207;-69
2023/04/29 02:46:58;;;;;;;9.40;3.93;;;;;;;5.22;100.00;451.69;5013759;28;20195;-69
2023/04/29 02:49:23;;;;;;;8.57;5.03;;;;;;;4.83;100.00;1083.22;5013727;28;20180;-69
2023/04/29 02:51:48;;;;;;;8.57;5.03;;;;;;;5.14;100.00;768.94;5013369;28;20210;-69
2023/04/29 02:54:15;;;;;;;7.33;4.50;;;;;;;4.83;100.00;1083.22;5012952;28;20666;-70
2023/04/29 02:56:41;;;;;;;10.17;5.67;;;;;;;4.82;100.00;1719.34;5013855;28;20211;-70
2023/04/29 02:59:06;;;;;;;6.87;4.97;;;;;;;4.76;100.00;1718.56;5013710;28;20771;-69
2023/04/29 03:01:31;;;;;;;7.43;4.50;;;;;;;5.00;100.00;1721.84;5013553;28;20188;-69
2023/04/29 03:03:57;;;;;;;7.13;4.47;;;;;;;4.90;100.00;1402.34;5012911;28;20180;-67
2023/04/29 03:06:23;;;;;;;9.67;4.87;;;;;;;4.96;100.00;1403.09;5012658;28;20187;-68
2023/04/29 03:08:49;;;;;;;7.23;4.70;;;;;;;4.82;100.00;1401.19;5021888;28;20180;-68
2023/04/29 03:11:14;;;;;;;7.30;4.73;;;;;;;4.76;100.00;1718.56;5013067;28;20299;-67
2023/04/29 03:13:40;;;;;;;12.60;5.30;;;;;;;4.93;100.00;1084.53;5013081;28;20184;-70
2023/04/29 03:16:06;;;;;;;11.40;4.43;;;;;;;4.58;100.00;1080.00;5000582;28;20184;-69
2023/04/29 03:18:31;;;;;;;8.27;4.90;;;;;;;4.87;100.00;1401.88;5013086;28;20175;-69
2023/04/29 03:20:57;;;;;;;9.53;5.70;;;;;;;5.10;100.00;2041.47;5013603;28;20268;-70
2023/04/29 03:23:22;;;;;;;9.00;4.50;;;;;;;4.76;100.00;2672.97;5013157;28;20293;-71
2023/04/29 03:25:48;;;;;;;6.93;4.60;;;;;;;5.09;100.00;4270.38;5013064;28;20263;-68
2023/04/29 03:28:14;;;;;;;11.27;4.97;;;;;;;5.17;100.00;3953.19;5013230;28;20259;-69
2023/04/29 03:30:39;;;;;;;8.53;4.90;;;;;;;5.00;100.00;3313.44;5012988;28;20608;-67
2023/04/29 03:33:04;;;;;;;10.73;5.53;;;;;;;5.62;100.00;3323.56;5012649;28;20212;-68
2023/04/29 03:35:30;;;;;;;9.33;4.70;;;;;;;6.19;100.00;7482.94;5012845;28;20278;-68
2023/04/29 03:37:55;;;;;;;10.93;5.17;;;;;;;6.96;100.00;14224.00;5013123;28;20183;-68
2023/04/29 03:40:21;;;;;;;7.53;4.67;;;;;;;7.68;100.00;31942.41;5012960;28;20257;-69
2023/04/29 03:42:46;;;;;;;7.10;4.80;;;;;;;8.43;100.00;49222.75;5012965;28;20194;-69
2023/04/29 03:45:13;;;;;;;7.03;5.17;;;;;;;9.02;100.00;56694.63;5011290;28;20544;-68
2023/04/29 03:47:39;;;;;;;7.83;5.27;;;;;;;9.99;100.00;58730.81;5008273;28;20211;-69
2023/04/29 03:50:06;;;;;;;9.00;4.53;;;;;;;10.83;100.00;59720.25;5013093;28;20215;-70
2023/04/29 03:52:35;;;;;;;10.23;5.20;;;;;;;11.43;100.00;60172.72;5011584;28;20675;-69
2023/04/29 03:55:00;;;;;;;9.27;4.93;;;;;;;11.77;100.00;60378.91;5012591;28;20666;-70
2023/04/29 03:57:26;;;;;;;7.77;4.67;;;;;;;12.83;100.00;60590.53;5012957;28;20203;-68
2023/04/29 03:59:51;;;;;;;9.07;5.07;;;;;;;13.69;100.00;60832.13;5011285;28;20238;-69
2023/04/29 04:02:17;;;;;;;8.15;5.05;;;;;;;12.97;100.00;60823.56;5012496;28;20187;-68
2023/04/29 04:04:42;;;;;;;7.32;4.63;;;;;;;12.53;100.00;60772.69;5011119;28;20198;-68
2023/04/29 04:07:07;;;;;;;7.35;5.32;;;;;;;11.69;100.00;60684.06;5011762;28;20191;-67
2023/04/29 04:09:33;;;;;;;7.90;4.97;;;;;;;11.15;100.00;60647.03;5020840;28;20262;-70
2023/04/29 04:11:59;;;;;;;8.97;5.67;;;;;;;11.17;100.00;60585.94;5012245;28;20278;-69
2023/04/29 04:14:25;;;;;;;9.87;6.30;;;;;;;10.95;100.00;60545.97;5012136;28;20176;-71
2023/04/29 04:16:50;;;;;;;7.87;4.97;;;;;;;10.47;100.00;60498.41;5010393;28;20646;-68
2023/04/29 04:19:16;;;;;;;11.60;5.10;;;;;;;9.84;100.00;60438.66;5010897;28;20183;-69
2023/04/29 04:21:41;;;;;;;10.10;5.20;;;;;;;9.49;100.00;60343.41;5012579;28;20245;-69
2023/04/29 04:24:07;;;;;;;10.33;5.67;;;;;;;9.35;100.00;60346.16;5011853;28;20208;-68
2023/04/29 04:26:32;;;;;;;7.57;4.97;;;;;;;9.21;100.00;60297.94;5012506;28;20643;-68
2023/04/29 04:28:58;;;;;;;11.23;6.00;;;;;;;9.96;100.00;60370.44;5012299;28;20182;-67
2023/04/29 04:31:24;;;;;;;12.57;6.03;;;;;;;10.40;100.00;60502.78;5011720;28;20238;-68
2023/04/29 04:33:49;;;;;;;9.67;5.97;;;;;;;11.14;100.00;60643.94;5012617;28;20180;-69
2023/04/29 04:36:15;;;;;;;10.43;6.13;;;;;;;11.70;100.00;60718.97;5011804;28;20172;-68
2023/04/29 04:38:40;;;;;;;11.17;6.20;;;;;;;11.85;100.00;60794.16;5011590;28;20176;-67
2023/04/29 04:41:07;;;;;;;12.13;5.32;;;;;;;12.19;100.00;60814.47;5011612;28;20271;-68
2023/04/29 04:43:32;;;;;;;8.68;5.07;;;;;;;12.32;100.00;60867.47;5011183;28;20226;-68
2023/04/29 04:45:58;;;;;;;11.40;5.75;;;;;;;12.05;100.00;60842.22;5011408;28;20176;-69
2023/04/29 04:48:23;;;;;;;9.10;5.10;;;;;;;11.48;100.00;60776.69;5011303;28;20175;-68
2023/04/29 04:50:48;;;;;;;10.35;5.38;;;;;;;10.91;100.00;60712.66;5010292;28;20188;-68
2023/04/29 04:53:14;;;;;;;7.63;4.57;;;;;;;10.68;100.00;60659.31;5011917;28;20152;-69
2023/04/29 04:55:39;;;;;;;7.40;4.67;;;;;;;10.17;100.00;60644.00;5011159;28;20187;-68
2023/04/29 04:58:05;;;;;;;7.40;4.13;;;;;;;10.15;100.00;60633.53;5011268;28;20654;-68
2023/04/29 05:00:30;;;;;;;7.43;4.10;;;;;;;9.92;100.00;60617.94;5011392;28;20168;-69
2023/04/29 05:02:56;;;;;;;7.07;4.57;;;;;;;9.74;100.00;60563.16;5011282;28;20183;-69
2023/04/29 05:05:21;;;;;;;6.63;4.60;;;;;;;9.23;100.00;60503.44;5011077;28;20307;-68
2023/04/29 05:07:46;;;;;;;6.97;4.40;;;;;;;9.16;100.00;60508.34;5011314;28;20342;-69
2023/04/29 05:10:12;;;;;;;9.17;4.17;;;;;;;9.37;100.00;60732.66;5018737;28;20168;-69
2023/04/29 05:12:37;;;;;;;8.77;4.50;;;;;;;9.55;100.00;60516.38;5011236;28;20658;-68
2023/04/29 05:15:03;;;;;;;6.33;4.23;;;;;;;9.31;100.00;60548.09;5010919;28;20180;-69
2023/04/29 05:17:29;;;;;;;8.57;4.30;;;;;;;9.32;100.00;60528.81;5011296;28;20533;-69
2023/04/29 05:19:54;;;;;;;6.40;3.83;;;;;;;9.53;100.00;60551.78;5011277;28;20176;-69
2023/04/29 05:22:19;;;;;;;6.90;4.37;;;;;;;9.51;100.00;60547.56;5010996;28;20176;-68
2023/04/29 05:24:47;;;;;;;10.00;4.93;;;;;;;9.18;100.00;60511.16;5006100;28;20618;-69
2023/04/29 05:27:13;;;;;;;10.87;4.10;;;;;;;9.21;100.00;60443.16;5013003;28;20739;-68
2023/04/29 05:29:38;;;;;;;7.83;4.60;;;;;;;9.24;100.00;60497.50;5014464;28;20183;-68
2023/04/29 05:32:04;;;;;;;7.53;4.97;;;;;;;9.54;100.00;60543.28;5014742;28;20200;-70
2023/04/29 05:34:29;;;;;;;7.07;4.13;;;;;;;9.52;100.00;60515.56;5014293;28;20192;-69
2023/04/29 05:36:56;;;;;;;5.10;3.80;;;;;;;9.87;100.00;60558.75;5013360;28;20183;-69
2023/04/29 05:39:21;;;;;;;6.60;4.03;;;;;;;10.08;100.00;60595.63;5013454;28;20560;-67
2023/04/29 05:41:47;;;;;;;7.53;4.27;;;;;;;10.40;100.00;60623.34;5014412;28;20176;-69
2023/04/29 05:44:12;;;;;;;6.07;4.17;;;;;;;10.47;100.00;60689.91;5014558;28;20176;-69
2023/04/29 05:46:38;;;;;;;5.67;3.70;;;;;;;10.35;100.00;60870.44;5014415;28;20182;-69
2023/04/29 05:49:03;;;;;;;6.33;4.30;;;;;;;10.48;100.00;60685.94;5013186;28;20524;-69
2023/04/29 05:51:30;;;;;;;6.97;4.13;;;;;;;10.52;100.00;60661.75;5014359;28;20287;-67
2023/04/29 05:53:56;;;;;;;6.50;4.47;;;;;;;10.76;100.00;60744.34;5014302;28;20172;-68
2023/04/29 05:56:22;;;;;;;4.75;3.72;;;;;;;11.15;100.00;60775.38;5014496;28;20188;-70
2023/04/29 05:58:47;;;;;;;15.25;4.63;;;;;;;11.48;100.00;60789.47;5014606;28;20220;-68
2023/04/29 06:01:13;;;;;;;7.63;4.78;;;;;;;11.70;100.00;60823.88;5013280;28;20666;-68
2023/04/29 06:03:38;;;;;;;8.23;4.97;;;;;;;11.79;100.00;60848.81;5014469;28;20200;-68
2023/04/29 06:06:03;;;;;;;7.43;4.63;;;;;;;11.63;100.00;60818.56;5014295;28;20606;-69
2023/04/29 06:08:29;;;;;;;9.50;5.93;;;;;;;12.29;100.00;60889.72;5014408;28;20172;-67
2023/04/29 06:10:55;;;;;;;14.80;6.78;;;;;;;12.29;100.00;60868.66;5022114;28;20588;-68
2023/04/29 06:13:20;;;;;;;10.00;5.68;;;;;;;12.33;100.00;60858.38;5013990;28;20601;-68
2023/04/29 06:15:46;;;;;;;9.98;5.88;;;;;;;12.69;100.00;60951.56;5013973;28;20172;-68
2023/04/29 06:18:11;;;;;;;10.80;6.45;;;;;;;12.61;100.00;60922.06;5012621;28;20175;-71
2023/04/29 06:20:37;;;;;;;8.88;5.22;;;;;;;12.20;100.00;60823.25;5013970;28;20214;-70
2023/04/29 06:23:04;;;;;;;7.38;4.18;;;;;;;12.81;100.00;60893.28;5013998;28;20557;-70
2023/04/29 06:25:29;;;;;;;5.55;4.22;;;;;;;12.39;100.00;60879.94;5013582;28;20187;-71
2023/04/29 06:27:56;;;;;;;6.13;4.05;;;;;;;12.42;100.00;60885.28;5013567;28;20169;-70
2023/04/29 06:30:21;;;;;;;4.95;3.42;;;;;;;12.78;98.55;60959.13;5012384;28;20175;-68
2023/04/29 06:32:47;;;;;;;6.13;3.40;;;;;;;12.75;96.86;60940.94;5013650;28;20687;-68
2023/04/29 06:35:12;;;;;;;4.35;3.33;;;;;;;12.78;100.00;60918.69;5012351;28;20179;-70
2023/04/29 06:37:38;;;;;;;6.03;3.70;;;;;;;12.99;97.31;60923.81;5013678;28;20168;-68
2023/04/29 06:40:04;;;;;;;5.88;3.60;;;;;;;13.66;94.56;61039.22;5013054;28;20176;-67
2023/04/29 06:42:30;;;;;;;6.47;3.65;;;;;;;13.21;94.71;60966.00;5013454;28;20176;-69
2023/04/29 06:44:55;;;;;;;5.60;3.65;;;;;;;13.56;92.72;60992.00;5013278;28;20180;-68
2023/04/29 06:47:21;;;;;;;4.93;3.22;;;;;;;13.45;95.18;61013.00;5013953;28;20188;-69
2023/04/29 06:49:46;;;;;;;4.82;3.67;;;;;;;13.49;93.53;61028.31;5011727;28;20176;-68
2023/04/29 06:52:12;;;;;;;5.72;3.65;;;;;;;13.29;95.61;61041.69;5012941;28;20192;-67
2023/04/29 06:54:38;;;;;;;4.38;3.08;;;;;;;13.46;95.31;61142.97;5011829;28;20230;-67
2023/04/29 06:57:03;;;;;;;5.07;3.70;;;;;;;13.60;97.45;60952.88;5012007;28;20843;-64
2023/04/29 06:59:28;;;;;;;4.95;2.97;;;;;;;13.54;93.25;61003.16;5012529;28;20223;-65
2023/04/29 07:01:54;;;;;;;5.57;3.75;;;;;;;13.90;96.75;61212.63;5013701;28;20164;-65
2023/04/29 07:04:20;;;;;;;4.35;2.97;;;;;;;14.30;92.64;61115.94;5013216;28;20263;-64
2023/04/29 07:06:46;;;;;;;5.30;3.30;;;;;;;14.37;92.49;61105.31;5013652;28;20168;-64
2023/04/29 07:09:15;;;;;;;5.63;3.60;;;;;;;14.48;92.05;61099.72;5015733;28;20175;-65
2023/04/29 07:11:41;;;;;;;4.22;3.08;;;;;;;14.68;86.29;61130.00;5014406;28;20188;-64
2023/04/29 07:14:06;;;;;;;4.90;3.28;;;;;;;15.46;89.19;61155.69;5013889;28;20569;-64
2023/04/29 07:16:32;;;;;;;6.13;3.28;;;;;;;15.32;83.89;61195.94;5011235;28;20172;-65
2023/04/29 07:18:58;;;;;;;6.38;3.42;;;;;;;15.18;88.32;61147.25;5011459;28;20229;-65
2023/04/29 07:21:23;;;;;;;4.68;3.53;;;;;;;15.25;82.73;61211.22;5011459;28;20180;-63
2023/04/29 07:23:49;;;;;;;6.25;3.33;;;;;;;15.34;85.37;61213.66;5011609;28;20176;-65
2023/04/29 07:26:16;;;;;;;6.97;3.67;;;;;;;15.61;81.88;61241.03;5011282;28;20660;-64
2023/04/29 07:28:42;;;;;;;7.20;3.78;;;;;;;15.81;81.62;61263.63;5012307;28;20169;-64
2023/04/29 07:31:07;;;;;;;4.80;3.30;;;;;;;15.27;83.45;61381.31;5012354;28;20226;-64
2023/04/29 07:33:34;;;;;;;4.72;3.28;;;;;;;14.85;85.02;61166.59;5013339;28;20653;-65
2023/04/29 07:35:59;;;;;;;3.70;2.78;;;;;;;14.10;89.09;61075.97;5012999;28;20183;-67
2023/04/29 07:38:25;;;;;;;5.63;3.25;;;;;;;14.81;90.04;61154.38;5012970;28;20176;-65
2023/04/29 07:40:50;;;;;;;4.97;3.38;;;;;;;14.13;88.16;61083.94;5012747;28;20553;-64
2023/04/29 07:43:16;;;;;;;6.22;3.58;;;;;;;14.88;85.36;61139.16;5012669;28;20172;-64
2023/04/29 07:45:41;;;;;;;5.40;3.28;;;;;;;15.24;82.23;61179.19;5012664;28;20260;-65
2023/04/29 07:48:06;;;;;;;5.30;3.42;;;;;;;15.74;78.69;61263.44;5012589;28;20628;-65
2023/04/29 07:50:37;;;;;;;4.13;3.10;;;;;;;15.53;80.41;61263.44;5012341;28;20164;-64
2023/04/29 07:53:04;;;;;;;4.30;2.90;;;;;;;15.36;82.21;61237.06;5012497;28;20254;-64
2023/04/29 07:55:29;;;;;;;6.07;3.35;;;;;;;14.98;82.09;61282.16;5012142;28;20199;-64
2023/04/29 07:57:56;;;;;;;6.55;3.08;;;;;;;15.24;82.52;61179.75;5012346;28;20211;-64
2023/04/29 08:00:22;;;;;;;4.03;2.88;;;;;;;15.36;82.03;61170.13;5012526;28;20176;-63
2023/04/29 08:02:55;;;;;;;7.47;3.42;;;;;;;15.60;82.09;61227.00;5010661;28;20188;-65
2023/04/29 08:05:21;;;;;;;5.97;2.97;;;;;;;15.24;83.42;61189.50;5012278;28;20180;-64
2023/04/29 08:07:50;;;;;;;3.90;2.92;;;;;;;15.01;83.24;61138.38;5009760;28;20191;-67
2023/04/29 08:10:17;;;;;;;4.40;3.13;;;;;;;14.70;83.26;61168.25;5013241;28;20183;-63
2023/04/29 08:12:46;;;;;;;5.38;3.17;;;;;;;14.93;82.88;61183.94;5010901;28;20302;-65
2023/04/29 08:15:11;;;;;;;4.45;3.30;;;;;;;14.99;81.25;61159.25;5012279;28;20290;-63
2023/04/29 08:17:37;;;;;;;4.63;3.13;;;;;;;15.01;81.21;61159.53;5011269;28;20270;-63
2023/04/29 08:20:03;;;;;;;5.05;3.20;;;;;;;15.36;81.14;61215.91;5011934;28;20179;-65
2023/04/29 08:22:28;;;;;;;6.10;3.10;;;;;;;15.46;81.63;61229.75;5011403;28;20230;-64
2023/04/29 08:24:53;;;;;;;6.32;3.58;;;;;;;15.39;79.42;61239.88;5010750;28;20234;-63
2023/04/29 08:27:20;;;;;;;4.55;3.22;;;;;;;15.49;79.19;61433.97;5011181;28;20176;-64
2023/04/29 08:29:46;;;;;;;6.45;2.90;;;;;;;15.51;80.97;61407.94;5011977;28;20191;-64
2023/04/29 08:32:12;;;;;;;5.13;3.35;;;;;;;15.90;80.39;61292.38;5011432;28;20192;-64
2023/04/29 08:34:37;;;;;;;4.53;3.30;;;;;;;16.21;76.29;61313.41;5011994;28;20207;-64
2023/04/29 08:37:02;;;;;;;5.03;2.97;;;;;;;16.39;78.22;61299.66;5010653;28;20184;-63
2023/04/29 08:39:31;;;;;;;7.88;3.63;;;;;;;16.21;77.31;61285.59;5012101;28;20180;-64
2023/04/29 08:41:57;;;;;;;5.72;3.72;;;;;;;16.32;73.44;61328.97;5010805;28;20671;-63
2023/04/29 08:44:25;;;;;;;5.50;3.20;;;;;;;16.74;73.84;61510.06;5011843;28;20183;-65
2023/04/29 08:46:51;;;;;;;4.70;3.10;;;;;;;17.28;70.84;61363.00;5011140;28;20175;-65
2023/04/29 08:49:17;;;;;;;5.05;3.30;;;;;;;17.57;69.48;61468.69;5011900;28;20179;-65
2023/04/29 08:51:42;;;;;;;4.75;3.17;;;;;;;17.42;70.26;61400.06;5011211;28;20207;-67
2023/04/29 08:54:08;;;;;;;6.45;3.97;;;;;;;17.39;67.82;61448.31;5011387;28;20229;-63
2023/04/29 08:56:34;;;;;;;4.70;3.25;;;;;;;17.74;68.71;61450.66;5011777;28;20541;-64
2023/04/29 08:59:01;;;;;;;5.97;3.78;;;;;;;17.71;70.74;61489.16;5011057;28;20686;-64
2023/04/29 09:01:29;;;;;;;6.55;3.58;;;;;;;17.97;70.22;61461.19;5012189;28;20184;-65
2023/04/29 09:04:08;;;;;;;4.00;3.10;;;;;;;17.30;70.46;61438.13;5014695;28;20187;-64
2023/04/29 09:06:34;;;;;;;7.47;3.20;;;;;;;17.41;69.90;61448.00;5016171;28;20179;-64
2023/04/29 09:09:01;;;;;;;8.30;3.30;;;;;;;16.73;72.59;61336.09;5017975;28;20210;-63
2023/04/29 09:11:28;;;;;;;5.78;3.20;;;;;;;16.50;71.57;61469.97;5015771;28;20279;-64
2023/04/29 09:14:01;;;;;;;6.40;3.42;;;;;;;16.90;71.06;61323.22;5014903;28;20284;-64
2023/04/29 09:16:27;;;;;;;4.97;3.17;;;;;;;17.20;74.40;61388.66;5015618;28;20179;-64
2023/04/29 09:18:54;;;;;;;4.47;3.28;;;;;;;16.91;71.28;61363.63;5014619;28;20210;-63
2023/04/29 09:21:23;;;;;;;4.88;3.40;;;;;;;16.46;73.92;61284.38;5016108;28;20255;-65
2023/04/29 09:23:58;;;;;;;6.43;3.70;;;;;;;16.19;72.68;61282.78;5014534;28;20188;-64
2023/04/29 09:26:23;;;;;;;4.40;3.15;;;;;;;16.45;73.42;61334.81;5014337;28;20629;-64
2023/04/29 09:29:05;;;;;;;4.65;3.25;;;;;;;16.64;70.38;61302.72;5014254;28;20188;-65
2023/04/29 09:31:30;;;;;;;6.32;3.47;;;;;;;16.74;70.45;61323.75;5015324;28;20310;-63
2023/04/29 09:33:57;;;;;;;5.72;3.40;;;;;;;17.01;72.75;61354.28;5012719;28;20275;-63
2023/04/29 09:36:39;;;;;;;4.57;3.00;;;;;;;17.09;69.18;61404.06;5015158;28;20180;-65
2023/04/29 09:39:10;;;;;;;3.50;3.08;;;;;;;17.23;66.21;61396.66;5014268;28;20211;-64
2023/04/29 09:41:51;;;;;;;4.28;3.03;;;;;;;17.65;67.28;61435.88;5014867;28;20267;-65
2023/04/29 09:44:16;;;;;;;4.70;2.78;;;;;;;17.44;67.89;61414.66;5014124;28;20569;-63
2023/04/29 09:46:42;;;;;;;6.30;3.45;;;;;;;17.48;69.81;61417.19;5014048;28;20184;-64
2023/04/29 09:49:28;;;;;;;4.78;3.20;;;;;;;17.72;61.90;61440.63;5013530;28;20199;-67
2023/04/29 09:52:02;;;;;;;5.18;3.22;;;;;;;17.49;65.92;61402.81;5013891;28;20191;-65
2023/04/29 09:54:30;;;;;;;5.20;2.97;;;;;;;17.97;66.74;61427.56;5013184;28;20187;-64
2023/04/29 09:56:58;;;;;;;3.30;2.70;;;;;;;17.96;66.55;61468.38;5012681;28;20184;-67
2023/04/29 09:59:24;;;;;;;5.43;3.30;;;;;;;18.21;63.72;61498.69;5013784;28;20730;-65
2023/04/29 10:01:54;;;;;;;4.60;3.00;;;;;;;18.51;59.95;61708.03;5013312;28;20180;-64
2023/04/29 10:04:26;;;;;;;5.15;3.22;;;;;;;18.63;54.25;61537.94;5011952;28;20570;-65
2023/04/29 10:06:53;;;;;;;5.00;3.03;;;;;;;18.36;56.39;61497.56;5013228;28;20184;-65
2023/04/29 10:09:20;;;;;;;4.57;3.05;;;;;;;18.37;55.91;61518.81;5017674;28;20262;-65
2023/04/29 10:11:50;;;;;;;3.60;2.80;;;;;;;18.10;53.27;61491.97;5013469;28;20663;-65
2023/04/29 10:14:19;;;;;;;4.55;3.08;;;;;;;18.27;56.58;61510.06;5011854;28;20172;-64
2023/04/29 10:17:01;;;;;;;4.88;2.95;;;;;;;18.09;54.39;61498.03;5013034;28;20504;-65
2023/04/29 10:19:53;;;;;;;6.13;3.35;;;;;;;17.81;55.21;61417.78;5012753;28;20176;-63
2023/04/29 10:22:28;;;;;;;5.30;3.20;;;;;;;18.06;55.00;61551.50;5012768;28;20176;-65
2023/04/29 10:24:54;;;;;;;5.53;3.10;;;;;;;18.57;54.92;61517.66;5013592;28;20266;-64
2023/04/29 10:27:21;;;;;;;4.78;3.20;;;;;;;18.47;57.00;61561.75;5012855;28;20183;-65
2023/04/29 10:29:49;;;;;;;4.22;2.70;;;;;;;18.08;54.65;61481.38;5012289;28;20195;-65
2023/04/29 10:32:16;;;;;;;7.10;3.30;;;;;;;18.51;51.44;61496.44;5013129;28;20679;-65
2023/04/29 10:34:42;;;;;;;4.68;3.08;;;;;;;18.26;51.31;61530.22;5013488;28;20172;-63
2023/04/29 10:37:10;;;;;;;6.38;3.03;;;;;;;18.42;54.77;61517.28;5012977;28;20180;-67
2023/04/29 10:39:46;;;;;;;3.65;3.00;;;;;;;18.34;50.14;61492.72;5009506;28;20180;-64
2023/04/29 10:42:24;;;;;;;5.00;3.45;;;;;;;18.83;51.12;61560.59;5012773;28;20635;-65
2023/04/29 10:45:30;;;;;;;6.68;3.47;;;;;;;18.97;50.01;61578.47;5013167;28;20191;-65
2023/04/29 10:48:01;;;;;;;6.50;3.35;;;;;;;19.39;48.40;61646.81;5012758;28;20223;-65
2023/04/29 10:50:33;;;;;;;3.45;2.53;;;;;;;19.50;48.49;61777.38;5013085;28;20195;-66
2023/04/29 10:53:03;;;;;;;8.07;2.97;;;;;;;19.57;nan;61686.84;5012750;28;20215;-65
2023/04/29 10:55:30;;;;;;;3.75;2.70;;;;;;;19.90;nan;61718.53;5013326;28;20267;-67
2023/04/29 10:57:56;;;;;;;2.90;2.40;;;;;;;19.86;nan;61670.47;5012265;28;20192;-66
2023/04/29 11:00:25;;;;;;;2.92;2.38;;;;;;;20.46;nan;61776.94;5013198;28;20183;-64
2023/04/29 11:02:53;;;;;;;4.63;2.47;;;;;;;20.52;nan;61796.16;5012124;28;20184;-64
2023/04/29 11:05:32;;;;;;;4.25;2.90;;;;;;;20.84;nan;61785.75;5013053;28;20195;-65
2023/04/29 11:08:22;;;;;;;5.18;2.75;;;;;;;20.70;nan;61769.88;5015579;28;20192;-65
2023/04/29 11:10:51;;;;;;;4.88;2.70;;;;;;;21.01;nan;61812.84;5013096;28;20183;-66
2023/04/29 11:13:21;;;;;;;3.72;2.67;;;;;;;21.02;nan;61824.38;5011670;28;20207;-64
2023/04/29 11:15:47;;;;;;;4.43;3.00;;;;;;;20.79;nan;61802.88;5012988;28;20168;-65
2023/04/29 11:18:13;;;;;;;3.75;2.50;;;;;;;20.96;nan;61807.16;5010384;28;20547;-65
2023/04/29 11:21:03;;;;;;;3.63;2.58;;;;;;;21.32;nan;61854.72;5011998;28;20258;-64
2023/04/29 11:23:30;;;;;;;3.80;2.38;;;;;;;20.72;nan;61785.69;4998299;28;20188;-64
2023/04/29 11:25:55;;;;;;;4.45;2.60;;;;;;;20.46;nan;61779.53;5012309;28;20705;-65
2023/04/29 11:28:26;;;;;;;3.35;2.40;;;;;;;20.87;nan;61791.75;5012333;28;20183;-64
2023/04/29 11:30:52;;;;;;;7.03;2.78;;;;;;;20.73;nan;61856.34;5012564;28;20176;-65
2023/04/29 11:33:22;;;;;;;3.75;2.42;;;;;;;20.92;nan;61778.69;5011814;28;20207;-64
2023/04/29 11:35:47;;;;;;;2.95;2.28;;;;;;;21.29;nan;61840.94;5012617;28;20670;-65